sensor_id;sensor_type;location;lat;lon;timestamp;temperature;humidity
11599;DHT22;5855;48.840;9.188;2023-06-10T00:00:23;17.40;99.90
11599;DHT22;5855;48.840;9.188;2023-06-10T00:02:49;17.40;99.90
11599;DHT22;5855;48.840;9.188;2023-06-10T00:05:16;17.30;99.90
11599;DHT22;5855;48.840;9.188;2023-06-10T00:07:46;17.30;99.90
11599;DHT22;5855;48.840;9.188;2023-06-10T00:10:13;17.20;99.90
11599;DHT22;5855;48.840;9.188;2023-06-10T00:12:41;17.20;99.90
11599;DHT22;5855;48.840;9.188;2023-06-10T00:15:09;17.20;99.90
11599;DHT22;5855;48.840;9.188;2023-06-10T00:17:38;17.10;99.90
11599;DHT22;5855;48.840;9.188;2023-06-10T00:20:07;17.10;99.90
11599;DHT22;5855;48.840;9.188;2023-06-10T00:22:36;17.00;99.90
11599;DHT22;5855;48.840;9.188;2023-06-10T00:25:03;17.00;99.90
11599;DHT22;5855;48.840;9.188;2023-06-10T00:27:30;16.90;99.90
11599;DHT22;5855;48.840;9.188;2023-06-10T00:30:01;16.90;99.90
11599;DHT22;5855;48.840;9.188;2023-06-10T00:32:27;16.90;99.90
11599;DHT22;5855;48.840;9.188;2023-06-10T00:34:55;16.80;99.90
11599;DHT22;5855;48.840;9.188;2023-06-10T00:37:22;16.80;99.90
11599;DHT22;5855;48.840;9.188;2023-06-10T00:39:49;16.70;99.90
11599;DHT22;5855;48.840;9.188;2023-06-10T00:42:17;16.70;99.90
11599;DHT22;5855;48.840;9.188;2023-06-10T00:44:43;16.70;99.90
11599;DHT22;5855;48.840;9.188;2023-06-10T00:47:10;16.60;99.90
11599;DHT22;5855;48.840;9.188;2023-06-10T00:49:37;16.60;99.90
11599;DHT22;5855;48.840;9.188;2023-06-10T00:52:07;16.50;99.90
11599;DHT22;5855;48.840;9.188;2023-06-10T00:54:36;16.50;99.90
11599;DHT22;5855;48.840;9.188;2023-06-10T00:57:03;16.40;99.90
11599;DHT22;5855;48.840;9.188;2023-06-10T00:59:31;16.50;99.90
11599;DHT22;5855;48.840;9.188;2023-06-10T01:01:59;16.40;99.90
11599;DHT22;5855;48.840;9.188;2023-06-10T01:04:26;16.30;99.90
11599;DHT22;5855;48.840;9.188;2023-06-10T01:07:00;16.30;99.90
11599;DHT22;5855;48.840;9.188;2023-06-10T01:09:37;16.20;99.90
11599;DHT22;5855;48.840;9.188;2023-06-10T01:12:10;16.20;99.90
11599;DHT22;5855;48.840;9.188;2023-06-10T01:14:38;16.20;99.90
11599;DHT22;5855;48.840;9.188;2023-06-10T01:17:10;16.20;99.90
11599;DHT22;5855;48.840;9.188;2023-06-10T01:19:37;16.20;99.90
11599;DHT22;5855;48.840;9.188;2023-06-10T01:22:07;16.20;99.90
11599;DHT22;5855;48.840;9.188;2023-06-10T01:24:36;16.20;99.90
11599;DHT22;5855;48.840;9.188;2023-06-10T01:27:10;16.30;99.90
11599;DHT22;5855;48.840;9.188;2023-06-10T01:29:43;16.20;99.90
11599;DHT22;5855;48.840;9.188;2023-06-10T01:32:15;16.20;99.90
11599;DHT22;5855;48.840;9.188;2023-06-10T01:34:44;16.10;99.90
11599;DHT22;5855;48.840;9.188;2023-06-10T01:37:15;16.10;99.90
11599;DHT22;5855;48.840;9.188;2023-06-10T01:39:45;16.10;99.90
11599;DHT22;5855;48.840;9.188;2023-06-10T01:42:13;16.00;99.90
11599;DHT22;5855;48.840;9.188;2023-06-10T01:44:40;16.00;99.90
11599;DHT22;5855;48.840;9.188;2023-06-10T01:47:07;15.90;99.90
11599;DHT22;5855;48.840;9.188;2023-06-10T01:49:34;15.80;99.90
11599;DHT22;5855;48.840;9.188;2023-06-10T01:52:01;15.80;99.90
11599;DHT22;5855;48.840;9.188;2023-06-10T01:54:29;15.70;99.90
11599;DHT22;5855;48.840;9.188;2023-06-10T01:56:56;15.60;99.90
11599;DHT22;5855;48.840;9.188;2023-06-10T01:59:23;15.60;99.90
11599;DHT22;5855;48.840;9.188;2023-06-10T02:01:50;15.60;99.90
11599;DHT22;5855;48.840;9.188;2023-06-10T02:04:17;15.50;99.90
11599;DHT22;5855;48.840;9.188;2023-06-10T02:06:44;15.50;99.90
11599;DHT22;5855;48.840;9.188;2023-06-10T02:09:11;15.40;99.90
11599;DHT22;5855;48.840;9.188;2023-06-10T02:11:39;15.40;99.90
11599;DHT22;5855;48.840;9.188;2023-06-10T02:14:06;15.40;99.90
11599;DHT22;5855;48.840;9.188;2023-06-10T02:16:33;15.40;99.90
11599;DHT22;5855;48.840;9.188;2023-06-10T02:19:00;15.30;99.90
11599;DHT22;5855;48.840;9.188;2023-06-10T02:21:28;15.30;99.90
11599;DHT22;5855;48.840;9.188;2023-06-10T02:23:55;15.30;99.90
11599;DHT22;5855;48.840;9.188;2023-06-10T02:26:21;15.30;99.90
11599;DHT22;5855;48.840;9.188;2023-06-10T02:28:49;15.30;99.90
11599;DHT22;5855;48.840;9.188;2023-06-10T02:31:17;15.30;99.90
11599;DHT22;5855;48.840;9.188;2023-06-10T02:33:45;15.30;99.90
11599;DHT22;5855;48.840;9.188;2023-06-10T02:36:11;15.30;99.90
11599;DHT22;5855;48.840;9.188;2023-06-10T02:38:42;15.40;99.90
11599;DHT22;5855;48.840;9.188;2023-06-10T02:41:09;15.50;99.90
11599;DHT22;5855;48.840;9.188;2023-06-10T02:43:36;15.50;99.90
11599;DHT22;5855;48.840;9.188;2023-06-10T02:46:04;15.40;99.90
11599;DHT22;5855;48.840;9.188;2023-06-10T02:48:30;15.30;99.90
11599;DHT22;5855;48.840;9.188;2023-06-10T02:50:57;15.30;99.90
11599;DHT22;5855;48.840;9.188;2023-06-10T02:53:25;15.30;99.90
11599;DHT22;5855;48.840;9.188;2023-06-10T02:55:51;15.20;99.90
11599;DHT22;5855;48.840;9.188;2023-06-10T02:58:18;15.20;99.90
11599;DHT22;5855;48.840;9.188;2023-06-10T03:00:45;15.30;99.90
11599;DHT22;5855;48.840;9.188;2023-06-10T03:03:13;15.20;99.90
11599;DHT22;5855;48.840;9.188;2023-06-10T03:05:41;15.20;99.90
11599;DHT22;5855;48.840;9.188;2023-06-10T03:08:08;15.20;99.90
11599;DHT22;5855;48.840;9.188;2023-06-10T03:10:35;15.10;99.90
11599;DHT22;5855;48.840;9.188;2023-06-10T03:13:02;15.00;99.90
11599;DHT22;5855;48.840;9.188;2023-06-10T03:15:28;15.00;99.90
11599;DHT22;5855;48.840;9.188;2023-06-10T03:17:58;15.00;99.90
11599;DHT22;5855;48.840;9.188;2023-06-10T03:20:27;15.00;99.90
11599;DHT22;5855;48.840;9.188;2023-06-10T03:22:54;15.00;99.90
11599;DHT22;5855;48.840;9.188;2023-06-10T03:25:20;15.10;99.90
11599;DHT22;5855;48.840;9.188;2023-06-10T03:27:47;15.10;99.90
11599;DHT22;5855;48.840;9.188;2023-06-10T03:30:14;15.00;99.90
11599;DHT22;5855;48.840;9.188;2023-06-10T03:32:41;15.00;99.90
11599;DHT22;5855;48.840;9.188;2023-06-10T03:35:08;14.90;99.90
11599;DHT22;5855;48.840;9.188;2023-06-10T03:37:36;14.90;99.90
11599;DHT22;5855;48.840;9.188;2023-06-10T03:40:04;14.90;99.90
11599;DHT22;5855;48.840;9.188;2023-06-10T03:42:32;14.90;99.90
11599;DHT22;5855;48.840;9.188;2023-06-10T03:44:58;14.90;99.90
11599;DHT22;5855;48.840;9.188;2023-06-10T03:47:25;14.90;99.90
11599;DHT22;5855;48.840;9.188;2023-06-10T03:49:52;14.90;99.90
11599;DHT22;5855;48.840;9.188;2023-06-10T03:52:19;14.90;99.90
11599;DHT22;5855;48.840;9.188;2023-06-10T03:54:47;15.00;99.90
11599;DHT22;5855;48.840;9.188;2023-06-10T03:57:14;14.90;99.90
11599;DHT22;5855;48.840;9.188;2023-06-10T03:59:41;14.80;99.90
11599;DHT22;5855;48.840;9.188;2023-06-10T04:02:08;14.80;99.90
11599;DHT22;5855;48.840;9.188;2023-06-10T04:04:35;14.80;99.90
11599;DHT22;5855;48.840;9.188;2023-06-10T04:07:03;14.90;99.90
11599;DHT22;5855;48.840;9.188;2023-06-10T04:09:30;14.90;99.90
11599;DHT22;5855;48.840;9.188;2023-06-10T04:11:58;14.90;99.90
11599;DHT22;5855;48.840;9.188;2023-06-10T04:14:25;15.00;99.90
11599;DHT22;5855;48.840;9.188;2023-06-10T04:16:52;15.00;99.90
11599;DHT22;5855;48.840;9.188;2023-06-10T04:19:19;15.10;99.90
11599;DHT22;5855;48.840;9.188;2023-06-10T04:21:46;15.00;99.90
11599;DHT22;5855;48.840;9.188;2023-06-10T04:24:13;15.10;99.90
11599;DHT22;5855;48.840;9.188;2023-06-10T04:26:40;15.10;99.90
11599;DHT22;5855;48.840;9.188;2023-06-10T04:29:08;15.10;99.90
11599;DHT22;5855;48.840;9.188;2023-06-10T04:31:35;15.20;99.90
11599;DHT22;5855;48.840;9.188;2023-06-10T04:34:02;15.20;99.90
11599;DHT22;5855;48.840;9.188;2023-06-10T04:36:29;15.30;99.90
11599;DHT22;5855;48.840;9.188;2023-06-10T04:38:56;15.30;99.90
11599;DHT22;5855;48.840;9.188;2023-06-10T04:41:22;15.40;99.90
11599;DHT22;5855;48.840;9.188;2023-06-10T04:43:49;15.40;99.90
11599;DHT22;5855;48.840;9.188;2023-06-10T04:46:18;15.40;99.90
11599;DHT22;5855;48.840;9.188;2023-06-10T04:48:45;15.50;99.90
11599;DHT22;5855;48.840;9.188;2023-06-10T04:51:12;15.60;99.90
11599;DHT22;5855;48.840;9.188;2023-06-10T04:53:39;15.60;99.90
11599;DHT22;5855;48.840;9.188;2023-06-10T04:56:07;15.70;99.90
11599;DHT22;5855;48.840;9.188;2023-06-10T04:58:34;15.80;99.90
11599;DHT22;5855;48.840;9.188;2023-06-10T05:01:01;15.90;99.90
11599;DHT22;5855;48.840;9.188;2023-06-10T05:03:29;15.90;99.90
11599;DHT22;5855;48.840;9.188;2023-06-10T05:05:56;16.00;99.90
11599;DHT22;5855;48.840;9.188;2023-06-10T05:08:23;16.10;99.90
11599;DHT22;5855;48.840;9.188;2023-06-10T05:10:50;16.20;99.90
11599;DHT22;5855;48.840;9.188;2023-06-10T05:13:17;16.20;99.90
11599;DHT22;5855;48.840;9.188;2023-06-10T05:15:44;16.30;99.90
11599;DHT22;5855;48.840;9.188;2023-06-10T05:18:12;16.40;99.90
11599;DHT22;5855;48.840;9.188;2023-06-10T05:20:40;16.50;99.90
11599;DHT22;5855;48.840;9.188;2023-06-10T05:23:07;16.60;99.90
11599;DHT22;5855;48.840;9.188;2023-06-10T05:25:34;16.70;99.90
11599;DHT22;5855;48.840;9.188;2023-06-10T05:28:01;16.80;99.90
11599;DHT22;5855;48.840;9.188;2023-06-10T05:30:28;16.80;99.90
11599;DHT22;5855;48.840;9.188;2023-06-10T05:32:55;17.00;99.90
11599;DHT22;5855;48.840;9.188;2023-06-10T05:35:22;17.00;99.90
11599;DHT22;5855;48.840;9.188;2023-06-10T05:37:50;17.10;99.90
11599;DHT22;5855;48.840;9.188;2023-06-10T05:40:17;17.20;99.90
11599;DHT22;5855;48.840;9.188;2023-06-10T05:42:44;17.30;99.90
11599;DHT22;5855;48.840;9.188;2023-06-10T05:45:11;17.40;99.90
11599;DHT22;5855;48.840;9.188;2023-06-10T05:47:38;17.50;99.90
11599;DHT22;5855;48.840;9.188;2023-06-10T05:50:06;17.60;99.90
11599;DHT22;5855;48.840;9.188;2023-06-10T05:52:34;17.70;99.90
11599;DHT22;5855;48.840;9.188;2023-06-10T05:55:02;17.80;99.90
11599;DHT22;5855;48.840;9.188;2023-06-10T05:57:29;17.90;99.90
11599;DHT22;5855;48.840;9.188;2023-06-10T05:59:56;18.00;99.90
11599;DHT22;5855;48.840;9.188;2023-06-10T06:02:23;18.10;99.90
11599;DHT22;5855;48.840;9.188;2023-06-10T06:04:50;18.30;99.90
11599;DHT22;5855;48.840;9.188;2023-06-10T06:07:16;18.40;99.90
11599;DHT22;5855;48.840;9.188;2023-06-10T06:09:46;18.50;99.90
11599;DHT22;5855;48.840;9.188;2023-06-10T06:12:14;18.60;99.90
11599;DHT22;5855;48.840;9.188;2023-06-10T06:14:41;18.70;99.90
11599;DHT22;5855;48.840;9.188;2023-06-10T06:17:08;18.80;99.90
11599;DHT22;5855;48.840;9.188;2023-06-10T06:19:34;18.90;99.90
11599;DHT22;5855;48.840;9.188;2023-06-10T06:22:01;19.00;99.90
11599;DHT22;5855;48.840;9.188;2023-06-10T06:24:28;19.10;99.90
11599;DHT22;5855;48.840;9.188;2023-06-10T06:26:55;19.20;99.90
11599;DHT22;5855;48.840;9.188;2023-06-10T06:29:23;19.30;99.90
11599;DHT22;5855;48.840;9.188;2023-06-10T06:31:50;19.40;99.90
11599;DHT22;5855;48.840;9.188;2023-06-10T06:34:17;19.50;99.90
11599;DHT22;5855;48.840;9.188;2023-06-10T06:36:43;19.60;99.90
11599;DHT22;5855;48.840;9.188;2023-06-10T06:39:10;19.70;99.90
11599;DHT22;5855;48.840;9.188;2023-06-10T06:41:37;19.70;99.90
11599;DHT22;5855;48.840;9.188;2023-06-10T06:44:04;19.80;99.90
11599;DHT22;5855;48.840;9.188;2023-06-10T06:46:32;19.90;99.90
11599;DHT22;5855;48.840;9.188;2023-06-10T06:48:59;20.00;99.90
11599;DHT22;5855;48.840;9.188;2023-06-10T06:51:26;20.10;99.90
11599;DHT22;5855;48.840;9.188;2023-06-10T06:53:53;20.30;99.90
11599;DHT22;5855;48.840;9.188;2023-06-10T06:56:22;20.40;99.90
11599;DHT22;5855;48.840;9.188;2023-06-10T06:58:49;20.50;99.90
11599;DHT22;5855;48.840;9.188;2023-06-10T07:01:16;20.70;99.90
11599;DHT22;5855;48.840;9.188;2023-06-10T07:03:44;20.80;99.90
11599;DHT22;5855;48.840;9.188;2023-06-10T07:06:11;20.80;99.90
11599;DHT22;5855;48.840;9.188;2023-06-10T07:08:38;21.00;99.90
11599;DHT22;5855;48.840;9.188;2023-06-10T07:11:05;21.10;99.90
11599;DHT22;5855;48.840;9.188;2023-06-10T07:13:32;21.30;99.90
11599;DHT22;5855;48.840;9.188;2023-06-10T07:15:59;21.30;99.90
11599;DHT22;5855;48.840;9.188;2023-06-10T07:18:25;21.40;99.90
11599;DHT22;5855;48.840;9.188;2023-06-10T07:20:54;21.60;99.90
11599;DHT22;5855;48.840;9.188;2023-06-10T07:23:20;21.70;99.90
11599;DHT22;5855;48.840;9.188;2023-06-10T07:25:47;21.80;99.90
11599;DHT22;5855;48.840;9.188;2023-06-10T07:28:14;22.00;99.90
11599;DHT22;5855;48.840;9.188;2023-06-10T07:30:41;22.10;99.90
11599;DHT22;5855;48.840;9.188;2023-06-10T07:33:08;22.30;99.90
11599;DHT22;5855;48.840;9.188;2023-06-10T07:35:36;22.50;99.90
11599;DHT22;5855;48.840;9.188;2023-06-10T07:38:04;22.70;99.90
11599;DHT22;5855;48.840;9.188;2023-06-10T07:40:31;22.80;99.90
11599;DHT22;5855;48.840;9.188;2023-06-10T07:42:58;22.90;99.90
11599;DHT22;5855;48.840;9.188;2023-06-10T07:45:24;23.00;99.90
11599;DHT22;5855;48.840;9.188;2023-06-10T07:47:51;23.20;99.90
11599;DHT22;5855;48.840;9.188;2023-06-10T07:50:18;23.30;99.90
11599;DHT22;5855;48.840;9.188;2023-06-10T07:52:45;23.50;99.90
11599;DHT22;5855;48.840;9.188;2023-06-10T07:55:14;23.60;99.90
11599;DHT22;5855;48.840;9.188;2023-06-10T07:57:40;23.70;99.90
11599;DHT22;5855;48.840;9.188;2023-06-10T08:00:08;23.80;99.90
11599;DHT22;5855;48.840;9.188;2023-06-10T08:02:35;23.80;99.90
11599;DHT22;5855;48.840;9.188;2023-06-10T08:05:03;23.80;99.90
11599;DHT22;5855;48.840;9.188;2023-06-10T08:07:30;24.00;99.90
11599;DHT22;5855;48.840;9.188;2023-06-10T08:09:57;24.10;99.90
11599;DHT22;5855;48.840;9.188;2023-06-10T08:12:25;24.00;99.90
11599;DHT22;5855;48.840;9.188;2023-06-10T08:14:52;23.90;99.90
11599;DHT22;5855;48.840;9.188;2023-06-10T08:17:20;24.00;99.90
11599;DHT22;5855;48.840;9.188;2023-06-10T08:19:47;24.10;99.90
11599;DHT22;5855;48.840;9.188;2023-06-10T08:22:14;24.20;99.90
11599;DHT22;5855;48.840;9.188;2023-06-10T08:24:41;24.40;99.90
11599;DHT22;5855;48.840;9.188;2023-06-10T08:27:08;24.60;99.90
11599;DHT22;5855;48.840;9.188;2023-06-10T08:29:37;24.80;99.90
11599;DHT22;5855;48.840;9.188;2023-06-10T08:32:04;25.00;99.90
11599;DHT22;5855;48.840;9.188;2023-06-10T08:34:33;25.20;99.90
11599;DHT22;5855;48.840;9.188;2023-06-10T08:37:01;25.40;99.90
11599;DHT22;5855;48.840;9.188;2023-06-10T08:39:27;25.40;99.90
11599;DHT22;5855;48.840;9.188;2023-06-10T08:42:04;25.60;99.90
11599;DHT22;5855;48.840;9.188;2023-06-10T08:44:37;25.70;99.90
11599;DHT22;5855;48.840;9.188;2023-06-10T08:47:08;26.00;99.90
11599;DHT22;5855;48.840;9.188;2023-06-10T08:49:40;26.20;99.90
11599;DHT22;5855;48.840;9.188;2023-06-10T08:52:08;26.40;99.90
11599;DHT22;5855;48.840;9.188;2023-06-10T08:54:36;26.50;99.90
11599;DHT22;5855;48.840;9.188;2023-06-10T08:57:05;26.80;99.90
11599;DHT22;5855;48.840;9.188;2023-06-10T08:59:33;26.80;99.90
11599;DHT22;5855;48.840;9.188;2023-06-10T09:02:02;27.00;99.90
11599;DHT22;5855;48.840;9.188;2023-06-10T09:04:30;26.90;99.90
11599;DHT22;5855;48.840;9.188;2023-06-10T09:06:58;26.80;99.90
11599;DHT22;5855;48.840;9.188;2023-06-10T09:09:25;26.80;99.90
11599;DHT22;5855;48.840;9.188;2023-06-10T09:11:53;26.80;99.90
11599;DHT22;5855;48.840;9.188;2023-06-10T09:14:20;26.80;99.90
11599;DHT22;5855;48.840;9.188;2023-06-10T09:16:47;27.20;99.80
11599;DHT22;5855;48.840;9.188;2023-06-10T09:19:16;27.50;98.50
11599;DHT22;5855;48.840;9.188;2023-06-10T09:21:43;27.80;97.90
11599;DHT22;5855;48.840;9.188;2023-06-10T09:24:10;28.00;96.50
11599;DHT22;5855;48.840;9.188;2023-06-10T09:26:37;28.30;96.00
11599;DHT22;5855;48.840;9.188;2023-06-10T09:29:04;28.50;95.30
11599;DHT22;5855;48.840;9.188;2023-06-10T09:31:32;28.70;95.00
11599;DHT22;5855;48.840;9.188;2023-06-10T09:34:08;28.80;94.80
11599;DHT22;5855;48.840;9.188;2023-06-10T09:36:37;29.20;94.70
11599;DHT22;5855;48.840;9.188;2023-06-10T09:39:05;29.40;93.40
11599;DHT22;5855;48.840;9.188;2023-06-10T09:41:40;29.50;92.40
11599;DHT22;5855;48.840;9.188;2023-06-10T09:44:12;29.80;91.60
11599;DHT22;5855;48.840;9.188;2023-06-10T09:46:40;30.10;90.50
11599;DHT22;5855;48.840;9.188;2023-06-10T09:49:07;30.10;90.50
11599;DHT22;5855;48.840;9.188;2023-06-10T09:51:34;30.20;89.30
11599;DHT22;5855;48.840;9.188;2023-06-10T09:54:03;30.50;89.10
11599;DHT22;5855;48.840;9.188;2023-06-10T09:56:34;30.80;87.40
11599;DHT22;5855;48.840;9.188;2023-06-10T09:59:02;30.90;85.40
11599;DHT22;5855;48.840;9.188;2023-06-10T10:01:31;31.00;85.70
11599;DHT22;5855;48.840;9.188;2023-06-10T10:03:59;30.90;86.60
11599;DHT22;5855;48.840;9.188;2023-06-10T10:06:26;30.90;85.00
11599;DHT22;5855;48.840;9.188;2023-06-10T10:08:54;30.70;84.80
11599;DHT22;5855;48.840;9.188;2023-06-10T10:11:23;30.70;85.00
11599;DHT22;5855;48.840;9.188;2023-06-10T10:13:52;30.90;83.20
11599;DHT22;5855;48.840;9.188;2023-06-10T10:16:20;30.90;83.40
11599;DHT22;5855;48.840;9.188;2023-06-10T10:18:52;30.90;82.50
11599;DHT22;5855;48.840;9.188;2023-06-10T10:21:23;31.10;80.80
11599;DHT22;5855;48.840;9.188;2023-06-10T10:23:53;31.10;80.80
11599;DHT22;5855;48.840;9.188;2023-06-10T10:26:25;31.30;81.50
11599;DHT22;5855;48.840;9.188;2023-06-10T10:29:00;31.10;79.40
11599;DHT22;5855;48.840;9.188;2023-06-10T10:31:33;31.10;81.30
11599;DHT22;5855;48.840;9.188;2023-06-10T10:34:04;31.40;80.60
11599;DHT22;5855;48.840;9.188;2023-06-10T10:36:33;31.50;79.80
11599;DHT22;5855;48.840;9.188;2023-06-10T10:38:59;31.70;78.40
11599;DHT22;5855;48.840;9.188;2023-06-10T10:41:30;31.90;75.90
11599;DHT22;5855;48.840;9.188;2023-06-10T10:43:58;32.30;74.70
11599;DHT22;5855;48.840;9.188;2023-06-10T10:46:25;32.50;74.60
11599;DHT22;5855;48.840;9.188;2023-06-10T10:48:53;32.50;74.80
11599;DHT22;5855;48.840;9.188;2023-06-10T10:51:22;32.80;73.30
11599;DHT22;5855;48.840;9.188;2023-06-10T10:54:11;33.00;71.10
11599;DHT22;5855;48.840;9.188;2023-06-10T10:57:09;33.20;69.10
11599;DHT22;5855;48.840;9.188;2023-06-10T10:59:54;32.70;67.80
11599;DHT22;5855;48.840;9.188;2023-06-10T11:02:40;32.80;68.00
11599;DHT22;5855;48.840;9.188;2023-06-10T11:05:09;33.20;65.10
11599;DHT22;5855;48.840;9.188;2023-06-10T11:07:37;33.70;64.40
11599;DHT22;5855;48.840;9.188;2023-06-10T11:10:07;33.90;62.80
11599;DHT22;5855;48.840;9.188;2023-06-10T11:12:52;33.40;62.80
11599;DHT22;5855;48.840;9.188;2023-06-10T11:15:20;33.40;63.20
11599;DHT22;5855;48.840;9.188;2023-06-10T11:18:08;33.50;62.10
11599;DHT22;5855;48.840;9.188;2023-06-10T11:20:45;33.30;61.90
11599;DHT22;5855;48.840;9.188;2023-06-10T11:23:25;32.50;60.90
11599;DHT22;5855;48.840;9.188;2023-06-10T11:26:13;32.30;60.90
11599;DHT22;5855;48.840;9.188;2023-06-10T11:31:25;32.60;63.10
11599;DHT22;5855;48.840;9.188;2023-06-10T11:33:53;33.20;60.70
11599;DHT22;5855;48.840;9.188;2023-06-10T11:36:20;33.70;59.20
11599;DHT22;5855;48.840;9.188;2023-06-10T11:38:47;34.40;58.20
11599;DHT22;5855;48.840;9.188;2023-06-10T11:41:14;34.80;56.50
11599;DHT22;5855;48.840;9.188;2023-06-10T11:43:42;35.20;55.50
11599;DHT22;5855;48.840;9.188;2023-06-10T11:46:10;35.60;53.10
11599;DHT22;5855;48.840;9.188;2023-06-10T11:48:37;36.10;50.90
11599;DHT22;5855;48.840;9.188;2023-06-10T11:51:06;36.60;50.30
11599;DHT22;5855;48.840;9.188;2023-06-10T11:53:33;36.80;47.20
11599;DHT22;5855;48.840;9.188;2023-06-10T11:55:59;37.10;45.80
11599;DHT22;5855;48.840;9.188;2023-06-10T11:58:26;37.30;45.20
11599;DHT22;5855;48.840;9.188;2023-06-10T12:00:55;37.10;45.40
11599;DHT22;5855;48.840;9.188;2023-06-10T12:03:24;37.30;45.00
11599;DHT22;5855;48.840;9.188;2023-06-10T12:05:57;36.70;43.00
11599;DHT22;5855;48.840;9.188;2023-06-10T12:08:25;36.30;43.70
11599;DHT22;5855;48.840;9.188;2023-06-10T12:10:52;36.50;42.40
11599;DHT22;5855;48.840;9.188;2023-06-10T12:13:20;36.50;42.70
11599;DHT22;5855;48.840;9.188;2023-06-10T12:15:47;36.60;42.70
11599;DHT22;5855;48.840;9.188;2023-06-10T12:18:18;36.50;42.40
11599;DHT22;5855;48.840;9.188;2023-06-10T12:20:46;36.20;43.20
11599;DHT22;5855;48.840;9.188;2023-06-10T12:23:15;36.00;43.00
11599;DHT22;5855;48.840;9.188;2023-06-10T12:25:49;36.40;43.40
11599;DHT22;5855;48.840;9.188;2023-06-10T12:28:20;36.60;42.60
11599;DHT22;5855;48.840;9.188;2023-06-10T12:30:48;36.70;42.30
11599;DHT22;5855;48.840;9.188;2023-06-10T12:33:19;37.20;41.40
11599;DHT22;5855;48.840;9.188;2023-06-10T12:35:50;37.00;39.80
11599;DHT22;5855;48.840;9.188;2023-06-10T12:38:21;37.40;40.40
11599;DHT22;5855;48.840;9.188;2023-06-10T12:40:50;37.80;39.50
11599;DHT22;5855;48.840;9.188;2023-06-10T12:43:19;37.80;39.30
11599;DHT22;5855;48.840;9.188;2023-06-10T12:45:47;37.50;38.20
11599;DHT22;5855;48.840;9.188;2023-06-10T12:48:19;37.40;39.20
11599;DHT22;5855;48.840;9.188;2023-06-10T12:50:51;37.40;38.30
11599;DHT22;5855;48.840;9.188;2023-06-10T12:53:19;38.00;38.20
11599;DHT22;5855;48.840;9.188;2023-06-10T12:55:46;37.70;36.10
11599;DHT22;5855;48.840;9.188;2023-06-10T12:58:14;38.20;36.10
11599;DHT22;5855;48.840;9.188;2023-06-10T13:00:41;38.80;35.40
11599;DHT22;5855;48.840;9.188;2023-06-10T13:03:09;39.60;35.30
11599;DHT22;5855;48.840;9.188;2023-06-10T13:05:38;40.10;34.00
11599;DHT22;5855;48.840;9.188;2023-06-10T13:08:05;40.20;31.90
11599;DHT22;5855;48.840;9.188;2023-06-10T13:10:32;39.90;31.30
11599;DHT22;5855;48.840;9.188;2023-06-10T13:13:00;40.00;31.70
11599;DHT22;5855;48.840;9.188;2023-06-10T13:15:27;40.00;31.50
11599;DHT22;5855;48.840;9.188;2023-06-10T13:17:54;39.60;31.80
11599;DHT22;5855;48.840;9.188;2023-06-10T13:20:22;40.20;32.10
11599;DHT22;5855;48.840;9.188;2023-06-10T13:22:51;41.10;30.00
11599;DHT22;5855;48.840;9.188;2023-06-10T13:25:18;41.90;28.50
11599;DHT22;5855;48.840;9.188;2023-06-10T13:27:44;41.90;28.50
11599;DHT22;5855;48.840;9.188;2023-06-10T13:30:12;41.20;28.00
11599;DHT22;5855;48.840;9.188;2023-06-10T13:32:39;40.20;28.40
11599;DHT22;5855;48.840;9.188;2023-06-10T13:35:06;39.70;28.20
11599;DHT22;5855;48.840;9.188;2023-06-10T13:37:33;39.70;28.80
11599;DHT22;5855;48.840;9.188;2023-06-10T13:40:02;40.70;28.10
11599;DHT22;5855;48.840;9.188;2023-06-10T13:42:29;41.50;27.60
11599;DHT22;5855;48.840;9.188;2023-06-10T13:44:58;42.60;26.80
11599;DHT22;5855;48.840;9.188;2023-06-10T13:47:25;43.40;26.20
11599;DHT22;5855;48.840;9.188;2023-06-10T13:49:52;43.90;25.10
11599;DHT22;5855;48.840;9.188;2023-06-10T13:52:18;44.30;24.40
11599;DHT22;5855;48.840;9.188;2023-06-10T13:54:45;44.60;24.50
11599;DHT22;5855;48.840;9.188;2023-06-10T13:57:14;44.10;23.40
11599;DHT22;5855;48.840;9.188;2023-06-10T13:59:40;43.30;23.40
11599;DHT22;5855;48.840;9.188;2023-06-10T14:02:07;42.50;23.90
11599;DHT22;5855;48.840;9.188;2023-06-10T14:04:34;42.00;25.00
11599;DHT22;5855;48.840;9.188;2023-06-10T14:07:01;42.40;24.90
11599;DHT22;5855;48.840;9.188;2023-06-10T14:09:28;42.90;24.40
11599;DHT22;5855;48.840;9.188;2023-06-10T14:11:55;43.40;23.60
11599;DHT22;5855;48.840;9.188;2023-06-10T14:14:23;43.70;23.50
11599;DHT22;5855;48.840;9.188;2023-06-10T14:16:50;43.60;23.00
11599;DHT22;5855;48.840;9.188;2023-06-10T14:19:17;44.00;23.00
11599;DHT22;5855;48.840;9.188;2023-06-10T14:21:44;44.40;22.80
11599;DHT22;5855;48.840;9.188;2023-06-10T14:24:11;44.80;22.30
11599;DHT22;5855;48.840;9.188;2023-06-10T14:26:37;45.10;22.00
11599;DHT22;5855;48.840;9.188;2023-06-10T14:29:04;45.10;21.60
11599;DHT22;5855;48.840;9.188;2023-06-10T14:31:33;44.60;21.80
11599;DHT22;5855;48.840;9.188;2023-06-10T14:34:00;44.90;21.10
11599;DHT22;5855;48.840;9.188;2023-06-10T14:36:27;44.80;21.40
11599;DHT22;5855;48.840;9.188;2023-06-10T14:38:54;44.70;21.40
11599;DHT22;5855;48.840;9.188;2023-06-10T14:41:22;44.80;20.90
11599;DHT22;5855;48.840;9.188;2023-06-10T14:43:49;44.30;21.20
11599;DHT22;5855;48.840;9.188;2023-06-10T14:46:16;44.50;21.30
11599;DHT22;5855;48.840;9.188;2023-06-10T14:48:44;44.80;20.90
11599;DHT22;5855;48.840;9.188;2023-06-10T14:51:11;44.70;20.50
11599;DHT22;5855;48.840;9.188;2023-06-10T14:53:38;44.70;20.20
11599;DHT22;5855;48.840;9.188;2023-06-10T14:56:05;44.70;20.10
11599;DHT22;5855;48.840;9.188;2023-06-10T14:58:31;44.90;20.00
11599;DHT22;5855;48.840;9.188;2023-06-10T15:00:58;44.90;20.50
11599;DHT22;5855;48.840;9.188;2023-06-10T15:03:25;45.30;20.50
11599;DHT22;5855;48.840;9.188;2023-06-10T15:05:53;44.40;20.50
11599;DHT22;5855;48.840;9.188;2023-06-10T15:08:20;44.10;20.40
11599;DHT22;5855;48.840;9.188;2023-06-10T15:10:47;44.50;20.50
11599;DHT22;5855;48.840;9.188;2023-06-10T15:13:14;44.70;19.80
11599;DHT22;5855;48.840;9.188;2023-06-10T15:15:41;44.10;19.40
11599;DHT22;5855;48.840;9.188;2023-06-10T15:18:08;43.00;20.20
11599;DHT22;5855;48.840;9.188;2023-06-10T15:20:35;42.00;20.70
11599;DHT22;5855;48.840;9.188;2023-06-10T15:23:03;41.70;21.40
11599;DHT22;5855;48.840;9.188;2023-06-10T15:25:30;41.10;21.50
11599;DHT22;5855;48.840;9.188;2023-06-10T15:27:56;40.20;21.90
11599;DHT22;5855;48.840;9.188;2023-06-10T15:30:23;39.90;22.40
11599;DHT22;5855;48.840;9.188;2023-06-10T15:32:50;40.90;22.10
11599;DHT22;5855;48.840;9.188;2023-06-10T15:35:17;41.70;21.40
11599;DHT22;5855;48.840;9.188;2023-06-10T15:37:44;41.90;21.50
11599;DHT22;5855;48.840;9.188;2023-06-10T15:40:12;42.70;21.90
11599;DHT22;5855;48.840;9.188;2023-06-10T15:42:39;42.60;21.60
11599;DHT22;5855;48.840;9.188;2023-06-10T15:45:06;43.00;22.40
11599;DHT22;5855;48.840;9.188;2023-06-10T15:47:33;43.00;21.60
11599;DHT22;5855;48.840;9.188;2023-06-10T15:50:00;42.90;21.50
11599;DHT22;5855;48.840;9.188;2023-06-10T15:52:27;43.30;21.50